sensor_id;sensor_type;location;lat;lon;timestamp;P1;durP1;ratioP1;P2;durP2;ratioP2
60239;SDS011;46102;39.012;-7.064;2024-03-22T00:01:01;4.45;;;1.88;;
60239;SDS011;46102;39.012;-7.064;2024-03-22T00:03:01;4.00;;;2.30;;
60239;SDS011;46102;39.012;-7.064;2024-03-22T00:05:02;4.65;;;1.83;;
60239;SDS011;46102;39.012;-7.064;2024-03-22T00:07:03;8.05;;;2.55;;
60239;SDS011;46102;39.012;-7.064;2024-03-22T00:09:05;2.13;;;1.88;;
60239;SDS011;46102;39.012;-7.064;2024-03-22T00:11:06;12.40;;;2.20;;
60239;SDS011;46102;39.012;-7.064;2024-03-22T00:13:06;4.47;;;2.25;;
60239;SDS011;46102;39.012;-7.064;2024-03-22T00:15:07;3.65;;;2.08;;
60239;SDS011;46102;39.012;-7.064;2024-03-22T00:17:08;2.30;;;2.03;;
60239;SDS011;46102;39.012;-7.064;2024-03-22T00:19:09;11.82;;;3.28;;
60239;SDS011;46102;39.012;-7.064;2024-03-22T00:21:09;11.88;;;2.63;;
60239;SDS011;46102;39.012;-7.064;2024-03-22T00:23:10;8.27;;;2.78;;
60239;SDS011;46102;39.012;-7.064;2024-03-22T00:25:11;7.95;;;3.45;;
60239;SDS011;46102;39.012;-7.064;2024-03-22T00:27:12;8.15;;;3.33;;
60239;SDS011;46102;39.012;-7.064;2024-03-22T00:29:12;4.78;;;3.80;;
60239;SDS011;46102;39.012;-7.064;2024-03-22T00:31:13;14.55;;;4.72;;
60239;SDS011;46102;39.012;-7.064;2024-03-22T00:33:14;8.13;;;4.03;;
60239;SDS011;46102;39.012;-7.064;2024-03-22T00:35:15;5.53;;;3.72;;
60239;SDS011;46102;39.012;-7.064;2024-03-22T00:37:15;7.72;;;4.65;;
60239;SDS011;46102;39.012;-7.064;2024-03-22T00:39:16;5.40;;;3.53;;
60239;SDS011;46102;39.012;-7.064;2024-03-22T00:41:17;7.38;;;5.28;;
60239;SDS011;46102;39.012;-7.064;2024-03-22T00:43:18;3.78;;;3.08;;
60239;SDS011;46102;39.012;-7.064;2024-03-22T00:45:20;8.77;;;4.00;;
60239;SDS011;46102;39.012;-7.064;2024-03-22T00:47:21;4.03;;;3.63;;
60239;SDS011;46102;39.012;-7.064;2024-03-22T00:49:21;7.63;;;3.60;;
60239;SDS011;46102;39.012;-7.064;2024-03-22T00:51:22;6.63;;;4.50;;
60239;SDS011;46102;39.012;-7.064;2024-03-22T00:53:23;6.85;;;3.58;;
60239;SDS011;46102;39.012;-7.064;2024-03-22T00:55:24;6.57;;;3.83;;
60239;SDS011;46102;39.012;-7.064;2024-03-22T00:57:25;5.30;;;3.50;;
60239;SDS011;46102;39.012;-7.064;2024-03-22T00:59:26;5.80;;;3.15;;
60239;SDS011;46102;39.012;-7.064;2024-03-22T01:01:26;8.98;;;3.58;;
60239;SDS011;46102;39.012;-7.064;2024-03-22T01:03:27;4.63;;;2.90;;
60239;SDS011;46102;39.012;-7.064;2024-03-22T01:05:28;7.57;;;2.50;;
60239;SDS011;46102;39.012;-7.064;2024-03-22T01:07:29;5.53;;;2.53;;
60239;SDS011;46102;39.012;-7.064;2024-03-22T01:09:30;2.65;;;2.42;;
60239;SDS011;46102;39.012;-7.064;2024-03-22T01:11:31;2.83;;;2.30;;
60239;SDS011;46102;39.012;-7.064;2024-03-22T01:13:32;8.30;;;2.70;;
60239;SDS011;46102;39.012;-7.064;2024-03-22T01:15:33;2.17;;;1.98;;
60239;SDS011;46102;39.012;-7.064;2024-03-22T01:17:34;2.85;;;2.38;;
60239;SDS011;46102;39.012;-7.064;2024-03-22T01:19:34;4.40;;;2.67;;
60239;SDS011;46102;39.012;-7.064;2024-03-22T01:21:35;10.55;;;3.75;;
60239;SDS011;46102;39.012;-7.064;2024-03-22T01:23:36;7.28;;;2.40;;
60239;SDS011;46102;39.012;-7.064;2024-03-22T01:25:37;7.70;;;2.28;;
60239;SDS011;46102;39.012;-7.064;2024-03-22T01:27:37;4.25;;;2.28;;
60239;SDS011;46102;39.012;-7.064;2024-03-22T01:29:38;6.55;;;2.60;;
60239;SDS011;46102;39.012;-7.064;2024-03-22T01:31:39;5.65;;;2.13;;
60239;SDS011;46102;39.012;-7.064;2024-03-22T01:33:40;4.70;;;3.00;;
60239;SDS011;46102;39.012;-7.064;2024-03-22T01:35:40;9.27;;;3.53;;
60239;SDS011;46102;39.012;-7.064;2024-03-22T01:37:41;5.80;;;3.30;;
60239;SDS011;46102;39.012;-7.064;2024-03-22T01:39:42;4.63;;;3.00;;
60239;SDS011;46102;39.012;-7.064;2024-03-22T01:41:43;10.38;;;2.38;;
60239;SDS011;46102;39.012;-7.064;2024-03-22T01:43:44;8.57;;;2.38;;
60239;SDS011;46102;39.012;-7.064;2024-03-22T01:45:45;7.38;;;2.80;;
60239;SDS011;46102;39.012;-7.064;2024-03-22T01:47:46;3.03;;;2.13;;
60239;SDS011;46102;39.012;-7.064;2024-03-22T01:49:47;7.28;;;2.25;;
60239;SDS011;46102;39.012;-7.064;2024-03-22T01:51:51;11.25;;;2.97;;
60239;SDS011;46102;39.012;-7.064;2024-03-22T01:53:52;5.22;;;2.20;;
60239;SDS011;46102;39.012;-7.064;2024-03-22T01:55:54;13.15;;;3.40;;
60239;SDS011;46102;39.012;-7.064;2024-03-22T01:57:55;12.45;;;3.63;;
60239;SDS011;46102;39.012;-7.064;2024-03-22T01:59:57;8.70;;;2.72;;
60239;SDS011;46102;39.012;-7.064;2024-03-22T02:02:00;8.95;;;2.88;;
60239;SDS011;46102;39.012;-7.064;2024-03-22T02:04:00;5.60;;;2.67;;
60239;SDS011;46102;39.012;-7.064;2024-03-22T02:06:02;3.92;;;2.90;;
60239;SDS011;46102;39.012;-7.064;2024-03-22T02:08:03;9.73;;;2.70;;
60239;SDS011;46102;39.012;-7.064;2024-03-22T02:10:04;10.60;;;2.75;;
60239;SDS011;46102;39.012;-7.064;2024-03-22T02:12:05;4.55;;;2.40;;
60239;SDS011;46102;39.012;-7.064;2024-03-22T02:14:06;4.45;;;2.50;;
60239;SDS011;46102;39.012;-7.064;2024-03-22T02:16:07;12.43;;;2.70;;
60239;SDS011;46102;39.012;-7.064;2024-03-22T02:18:08;14.23;;;3.97;;
60239;SDS011;46102;39.012;-7.064;2024-03-22T02:20:10;9.75;;;2.38;;
60239;SDS011;46102;39.012;-7.064;2024-03-22T02:22:12;4.28;;;2.25;;
60239;SDS011;46102;39.012;-7.064;2024-03-22T02:24:12;6.25;;;2.40;;
60239;SDS011;46102;39.012;-7.064;2024-03-22T02:26:13;10.00;;;2.35;;
60239;SDS011;46102;39.012;-7.064;2024-03-22T02:28:14;4.82;;;2.20;;
60239;SDS011;46102;39.012;-7.064;2024-03-22T02:30:15;9.43;;;3.22;;
60239;SDS011;46102;39.012;-7.064;2024-03-22T02:32:16;4.95;;;2.20;;
60239;SDS011;46102;39.012;-7.064;2024-03-22T02:34:17;7.93;;;2.53;;
60239;SDS011;46102;39.012;-7.064;2024-03-22T02:36:17;3.67;;;2.53;;
60239;SDS011;46102;39.012;-7.064;2024-03-22T02:38:18;13.25;;;2.45;;
60239;SDS011;46102;39.012;-7.064;2024-03-22T02:40:19;16.00;;;2.53;;
60239;SDS011;46102;39.012;-7.064;2024-03-22T02:42:20;7.65;;;2.90;;
60239;SDS011;46102;39.012;-7.064;2024-03-22T02:44:21;9.18;;;2.60;;
60239;SDS011;46102;39.012;-7.064;2024-03-22T02:46:22;10.68;;;2.83;;
60239;SDS011;46102;39.012;-7.064;2024-03-22T02:48:22;3.22;;;2.25;;
60239;SDS011;46102;39.012;-7.064;2024-03-22T02:50:23;5.22;;;2.75;;
60239;SDS011;46102;39.012;-7.064;2024-03-22T02:52:24;9.30;;;3.30;;
60239;SDS011;46102;39.012;-7.064;2024-03-22T02:54:25;7.50;;;2.80;;
60239;SDS011;46102;39.012;-7.064;2024-03-22T02:56:25;4.15;;;2.58;;
60239;SDS011;46102;39.012;-7.064;2024-03-22T02:58:26;12.77;;;2.95;;
60239;SDS011;46102;39.012;-7.064;2024-03-22T03:00:27;6.28;;;3.70;;
60239;SDS011;46102;39.012;-7.064;2024-03-22T03:02:28;12.50;;;3.75;;
60239;SDS011;46102;39.012;-7.064;2024-03-22T03:04:28;11.63;;;3.20;;
60239;SDS011;46102;39.012;-7.064;2024-03-22T03:06:29;8.82;;;2.97;;
60239;SDS011;46102;39.012;-7.064;2024-03-22T03:08:30;6.25;;;3.13;;
60239;SDS011;46102;39.012;-7.064;2024-03-22T03:10:31;7.82;;;3.35;;
60239;SDS011;46102;39.012;-7.064;2024-03-22T03:12:31;14.52;;;4.53;;
60239;SDS011;46102;39.012;-7.064;2024-03-22T03:14:32;11.73;;;3.47;;
60239;SDS011;46102;39.012;-7.064;2024-03-22T03:16:33;7.70;;;3.58;;
60239;SDS011;46102;39.012;-7.064;2024-03-22T03:18:34;7.97;;;3.13;;
60239;SDS011;46102;39.012;-7.064;2024-03-22T03:20:35;4.82;;;2.83;;
60239;SDS011;46102;39.012;-7.064;2024-03-22T03:22:36;9.07;;;3.17;;
60239;SDS011;46102;39.012;-7.064;2024-03-22T03:24:37;5.28;;;3.00;;
60239;SDS011;46102;39.012;-7.064;2024-03-22T03:26:37;8.23;;;3.25;;
60239;SDS011;46102;39.012;-7.064;2024-03-22T03:28:38;7.30;;;2.88;;
60239;SDS011;46102;39.012;-7.064;2024-03-22T03:30:39;6.75;;;3.00;;
60239;SDS011;46102;39.012;-7.064;2024-03-22T03:32:40;9.93;;;2.80;;
60239;SDS011;46102;39.012;-7.064;2024-03-22T03:34:41;5.57;;;2.80;;
60239;SDS011;46102;39.012;-7.064;2024-03-22T03:36:41;7.40;;;2.78;;
60239;SDS011;46102;39.012;-7.064;2024-03-22T03:38:42;6.60;;;3.05;;
60239;SDS011;46102;39.012;-7.064;2024-03-22T03:40:43;17.08;;;3.80;;
60239;SDS011;46102;39.012;-7.064;2024-03-22T03:42:44;10.75;;;2.75;;
60239;SDS011;46102;39.012;-7.064;2024-03-22T03:44:44;11.05;;;3.05;;
60239;SDS011;46102;39.012;-7.064;2024-03-22T03:46:45;12.60;;;3.00;;
60239;SDS011;46102;39.012;-7.064;2024-03-22T03:48:46;7.45;;;2.67;;
60239;SDS011;46102;39.012;-7.064;2024-03-22T03:50:53;15.02;;;3.97;;
60239;SDS011;46102;39.012;-7.064;2024-03-22T03:52:55;9.60;;;2.60;;
60239;SDS011;46102;39.012;-7.064;2024-03-22T03:54:55;13.77;;;2.67;;
60239;SDS011;46102;39.012;-7.064;2024-03-22T03:56:56;10.63;;;2.30;;
60239;SDS011;46102;39.012;-7.064;2024-03-22T03:58:57;13.00;;;2.20;;
60239;SDS011;46102;39.012;-7.064;2024-03-22T04:00:58;13.18;;;3.15;;
60239;SDS011;46102;39.012;-7.064;2024-03-22T04:02:58;9.80;;;2.88;;
60239;SDS011;46102;39.012;-7.064;2024-03-22T04:04:59;12.85;;;3.28;;
60239;SDS011;46102;39.012;-7.064;2024-03-22T04:07:00;9.85;;;2.80;;
60239;SDS011;46102;39.012;-7.064;2024-03-22T04:09:01;20.98;;;2.95;;
60239;SDS011;46102;39.012;-7.064;2024-03-22T04:11:03;11.82;;;2.90;;
60239;SDS011;46102;39.012;-7.064;2024-03-22T04:13:04;13.60;;;3.15;;
60239;SDS011;46102;39.012;-7.064;2024-03-22T04:15:05;5.30;;;3.20;;
60239;SDS011;46102;39.012;-7.064;2024-03-22T04:17:06;13.13;;;2.75;;
60239;SDS011;46102;39.012;-7.064;2024-03-22T04:19:07;12.23;;;4.00;;
60239;SDS011;46102;39.012;-7.064;2024-03-22T04:21:08;10.52;;;2.67;;
60239;SDS011;46102;39.012;-7.064;2024-03-22T04:23:08;16.45;;;2.53;;
60239;SDS011;46102;39.012;-7.064;2024-03-22T04:25:09;13.57;;;2.60;;
60239;SDS011;46102;39.012;-7.064;2024-03-22T04:27:10;14.43;;;2.63;;
60239;SDS011;46102;39.012;-7.064;2024-03-22T04:29:11;10.25;;;2.47;;
60239;SDS011;46102;39.012;-7.064;2024-03-22T04:31:12;12.77;;;2.83;;
60239;SDS011;46102;39.012;-7.064;2024-03-22T04:33:12;11.27;;;3.33;;
60239;SDS011;46102;39.012;-7.064;2024-03-22T04:35:13;9.85;;;2.75;;
60239;SDS011;46102;39.012;-7.064;2024-03-22T04:37:14;16.60;;;3.35;;
60239;SDS011;46102;39.012;-7.064;2024-03-22T04:39:15;8.93;;;2.78;;
60239;SDS011;46102;39.012;-7.064;2024-03-22T04:41:16;14.70;;;2.60;;
60239;SDS011;46102;39.012;-7.064;2024-03-22T04:43:17;15.13;;;2.55;;
60239;SDS011;46102;39.012;-7.064;2024-03-22T04:45:18;10.30;;;2.33;;
60239;SDS011;46102;39.012;-7.064;2024-03-22T04:47:19;11.82;;;2.38;;
60239;SDS011;46102;39.012;-7.064;2024-03-22T04:49:20;17.80;;;3.08;;
60239;SDS011;46102;39.012;-7.064;2024-03-22T04:51:21;9.65;;;2.38;;
60239;SDS011;46102;39.012;-7.064;2024-03-22T04:53:22;19.08;;;2.45;;
60239;SDS011;46102;39.012;-7.064;2024-03-22T04:55:23;17.00;;;3.25;;
60239;SDS011;46102;39.012;-7.064;2024-03-22T04:57:23;16.90;;;2.35;;
60239;SDS011;46102;39.012;-7.064;2024-03-22T04:59:24;15.88;;;3.00;;
60239;SDS011;46102;39.012;-7.064;2024-03-22T05:01:25;22.25;;;3.30;;
60239;SDS011;46102;39.012;-7.064;2024-03-22T05:03:25;17.85;;;2.58;;
60239;SDS011;46102;39.012;-7.064;2024-03-22T05:05:26;13.63;;;2.60;;
60239;SDS011;46102;39.012;-7.064;2024-03-22T05:07:27;13.18;;;2.42;;
60239;SDS011;46102;39.012;-7.064;2024-03-22T05:09:28;24.88;;;3.22;;
60239;SDS011;46102;39.012;-7.064;2024-03-22T05:11:28;7.28;;;3.08;;
60239;SDS011;46102;39.012;-7.064;2024-03-22T05:13:29;15.45;;;3.10;;
60239;SDS011;46102;39.012;-7.064;2024-03-22T05:15:31;15.75;;;2.80;;
60239;SDS011;46102;39.012;-7.064;2024-03-22T05:17:32;21.38;;;3.05;;
60239;SDS011;46102;39.012;-7.064;2024-03-22T05:19:33;24.45;;;3.78;;
60239;SDS011;46102;39.012;-7.064;2024-03-22T05:21:34;15.38;;;3.03;;
60239;SDS011;46102;39.012;-7.064;2024-03-22T05:23:34;21.88;;;3.58;;
60239;SDS011;46102;39.012;-7.064;2024-03-22T05:25:35;13.27;;;2.88;;
60239;SDS011;46102;39.012;-7.064;2024-03-22T05:27:36;19.17;;;3.42;;
60239;SDS011;46102;39.012;-7.064;2024-03-22T05:29:37;26.05;;;3.35;;
60239;SDS011;46102;39.012;-7.064;2024-03-22T05:31:45;17.05;;;2.80;;
60239;SDS011;46102;39.012;-7.064;2024-03-22T05:33:47;22.08;;;3.70;;
60239;SDS011;46102;39.012;-7.064;2024-03-22T05:35:48;36.28;;;4.43;;
60239;SDS011;46102;39.012;-7.064;2024-03-22T05:37:49;28.27;;;3.90;;
60239;SDS011;46102;39.012;-7.064;2024-03-22T05:39:49;33.40;;;4.25;;
60239;SDS011;46102;39.012;-7.064;2024-03-22T05:41:50;24.25;;;3.13;;
60239;SDS011;46102;39.012;-7.064;2024-03-22T05:43:51;28.35;;;3.97;;
60239;SDS011;46102;39.012;-7.064;2024-03-22T05:45:52;23.13;;;4.30;;
60239;SDS011;46102;39.012;-7.064;2024-03-22T05:47:52;16.70;;;3.55;;
60239;SDS011;46102;39.012;-7.064;2024-03-22T05:49:53;25.08;;;4.97;;
60239;SDS011;46102;39.012;-7.064;2024-03-22T05:51:54;20.27;;;3.90;;
60239;SDS011;46102;39.012;-7.064;2024-03-22T05:53:55;26.33;;;3.90;;
60239;SDS011;46102;39.012;-7.064;2024-03-22T05:55:56;22.17;;;3.80;;
60239;SDS011;46102;39.012;-7.064;2024-03-22T05:57:57;23.70;;;4.47;;
60239;SDS011;46102;39.012;-7.064;2024-03-22T05:59:57;38.58;;;4.07;;
60239;SDS011;46102;39.012;-7.064;2024-03-22T06:01:59;22.60;;;4.38;;
60239;SDS011;46102;39.012;-7.064;2024-03-22T06:04:01;30.75;;;4.55;;
60239;SDS011;46102;39.012;-7.064;2024-03-22T06:06:01;33.33;;;4.47;;
60239;SDS011;46102;39.012;-7.064;2024-03-22T06:08:03;23.90;;;3.60;;
60239;SDS011;46102;39.012;-7.064;2024-03-22T06:10:05;35.78;;;4.60;;
60239;SDS011;46102;39.012;-7.064;2024-03-22T06:12:06;36.47;;;4.88;;
60239;SDS011;46102;39.012;-7.064;2024-03-22T06:14:07;41.97;;;5.25;;
60239;SDS011;46102;39.012;-7.064;2024-03-22T06:16:07;31.38;;;5.47;;
60239;SDS011;46102;39.012;-7.064;2024-03-22T06:18:08;36.10;;;5.28;;
60239;SDS011;46102;39.012;-7.064;2024-03-22T06:20:09;25.45;;;5.13;;
60239;SDS011;46102;39.012;-7.064;2024-03-22T06:22:11;29.85;;;5.90;;
60239;SDS011;46102;39.012;-7.064;2024-03-22T06:24:12;27.33;;;4.63;;
60239;SDS011;46102;39.012;-7.064;2024-03-22T06:26:13;29.70;;;4.90;;
60239;SDS011;46102;39.012;-7.064;2024-03-22T06:28:14;53.83;;;5.82;;
60239;SDS011;46102;39.012;-7.064;2024-03-22T06:30:14;41.42;;;5.82;;
60239;SDS011;46102;39.012;-7.064;2024-03-22T06:32:15;26.30;;;6.97;;
60239;SDS011;46102;39.012;-7.064;2024-03-22T06:34:16;40.42;;;7.13;;
60239;SDS011;46102;39.012;-7.064;2024-03-22T06:36:17;35.65;;;6.68;;
60239;SDS011;46102;39.012;-7.064;2024-03-22T06:38:18;34.78;;;8.25;;
60239;SDS011;46102;39.012;-7.064;2024-03-22T06:40:19;33.25;;;8.40;;
60239;SDS011;46102;39.012;-7.064;2024-03-22T06:42:20;33.33;;;9.32;;
60239;SDS011;46102;39.012;-7.064;2024-03-22T06:44:21;44.70;;;14.77;;
60239;SDS011;46102;39.012;-7.064;2024-03-22T06:46:22;70.05;;;19.77;;
60239;SDS011;46102;39.012;-7.064;2024-03-22T06:48:23;91.28;;;26.17;;
60239;SDS011;46102;39.012;-7.064;2024-03-22T06:50:23;65.68;;;17.60;;
60239;SDS011;46102;39.012;-7.064;2024-03-22T06:52:24;58.03;;;18.40;;
60239;SDS011;46102;39.012;-7.064;2024-03-22T06:54:25;32.05;;;9.90;;
60239;SDS011;46102;39.012;-7.064;2024-03-22T06:56:26;55.13;;;15.57;;
60239;SDS011;46102;39.012;-7.064;2024-03-22T06:58:27;82.47;;;32.70;;
60239;SDS011;46102;39.012;-7.064;2024-03-22T07:00:29;57.08;;;20.63;;
60239;SDS011;46102;39.012;-7.064;2024-03-22T07:02:30;42.97;;;17.75;;
60239;SDS011;46102;39.012;-7.064;2024-03-22T07:04:31;37.58;;;20.48;;
60239;SDS011;46102;39.012;-7.064;2024-03-22T07:06:32;27.05;;;5.78;;
60239;SDS011;46102;39.012;-7.064;2024-03-22T07:08:33;34.38;;;4.78;;
60239;SDS011;46102;39.012;-7.064;2024-03-22T07:10:34;28.40;;;4.25;;
60239;SDS011;46102;39.012;-7.064;2024-03-22T07:12:39;37.90;;;6.32;;
60239;SDS011;46102;39.012;-7.064;2024-03-22T07:14:40;43.03;;;9.43;;
60239;SDS011;46102;39.012;-7.064;2024-03-22T07:16:41;31.15;;;4.63;;
60239;SDS011;46102;39.012;-7.064;2024-03-22T07:18:42;19.63;;;6.20;;
60239;SDS011;46102;39.012;-7.064;2024-03-22T07:20:42;36.45;;;13.52;;
60239;SDS011;46102;39.012;-7.064;2024-03-22T07:22:45;37.97;;;20.55;;
60239;SDS011;46102;39.012;-7.064;2024-03-22T07:24:46;54.67;;;35.28;;
60239;SDS011;46102;39.012;-7.064;2024-03-22T07:26:51;38.10;;;19.08;;
60239;SDS011;46102;39.012;-7.064;2024-03-22T07:28:52;22.75;;;6.63;;
60239;SDS011;46102;39.012;-7.064;2024-03-22T07:30:53;22.08;;;5.13;;
60239;SDS011;46102;39.012;-7.064;2024-03-22T07:32:55;37.15;;;5.80;;
60239;SDS011;46102;39.012;-7.064;2024-03-22T07:34:56;30.73;;;5.88;;
60239;SDS011;46102;39.012;-7.064;2024-03-22T07:36:57;29.45;;;5.63;;
60239;SDS011;46102;39.012;-7.064;2024-03-22T07:38:58;32.65;;;7.55;;
60239;SDS011;46102;39.012;-7.064;2024-03-22T07:40:59;30.48;;;10.65;;
60239;SDS011;46102;39.012;-7.064;2024-03-22T07:43:00;54.08;;;18.83;;
60239;SDS011;46102;39.012;-7.064;2024-03-22T07:45:06;40.30;;;22.52;;
60239;SDS011;46102;39.012;-7.064;2024-03-22T07:47:07;45.28;;;22.63;;
60239;SDS011;46102;39.012;-7.064;2024-03-22T07:49:08;39.97;;;8.77;;
60239;SDS011;46102;39.012;-7.064;2024-03-22T07:51:09;32.85;;;6.40;;
60239;SDS011;46102;39.012;-7.064;2024-03-22T07:53:10;20.13;;;5.80;;
60239;SDS011;46102;39.012;-7.064;2024-03-22T07:55:10;44.58;;;11.73;;
60239;SDS011;46102;39.012;-7.064;2024-03-22T07:57:12;29.05;;;7.65;;
60239;SDS011;46102;39.012;-7.064;2024-03-22T07:59:12;29.70;;;10.45;;
60239;SDS011;46102;39.012;-7.064;2024-03-22T08:01:13;57.58;;;21.42;;
60239;SDS011;46102;39.012;-7.064;2024-03-22T08:03:14;102.45;;;50.67;;
60239;SDS011;46102;39.012;-7.064;2024-03-22T08:05:16;67.80;;;44.45;;
60239;SDS011;46102;39.012;-7.064;2024-03-22T08:07:17;40.67;;;17.67;;
60239;SDS011;46102;39.012;-7.064;2024-03-22T08:09:17;22.98;;;5.03;;
60239;SDS011;46102;39.012;-7.064;2024-03-22T08:11:19;23.35;;;4.68;;
60239;SDS011;46102;39.012;-7.064;2024-03-22T08:13:20;21.08;;;4.15;;
60239;SDS011;46102;39.012;-7.064;2024-03-22T08:15:21;34.45;;;6.47;;
60239;SDS011;46102;39.012;-7.064;2024-03-22T08:17:21;29.58;;;5.53;;
60239;SDS011;46102;39.012;-7.064;2024-03-22T08:19:22;16.75;;;5.78;;
60239;SDS011;46102;39.012;-7.064;2024-03-22T08:21:23;25.45;;;11.13;;
60239;SDS011;46102;39.012;-7.064;2024-03-22T08:23:24;54.10;;;19.45;;
60239;SDS011;46102;39.012;-7.064;2024-03-22T08:25:26;49.97;;;30.63;;
60239;SDS011;46102;39.012;-7.064;2024-03-22T08:27:26;42.17;;;26.38;;
60239;SDS011;46102;39.012;-7.064;2024-03-22T08:29:27;16.80;;;5.18;;
60239;SDS011;46102;39.012;-7.064;2024-03-22T08:31:28;35.33;;;5.78;;
60239;SDS011;46102;39.012;-7.064;2024-03-22T08:33:29;30.75;;;5.38;;
60239;SDS011;46102;39.012;-7.064;2024-03-22T08:35:29;26.40;;;5.90;;
60239;SDS011;46102;39.012;-7.064;2024-03-22T08:37:31;31.02;;;5.57;;
60239;SDS011;46102;39.012;-7.064;2024-03-22T08:39:33;15.25;;;4.68;;
60239;SDS011;46102;39.012;-7.064;2024-03-22T08:41:34;33.55;;;6.22;;
60239;SDS011;46102;39.012;-7.064;2024-03-22T08:43:35;27.95;;;8.18;;
60239;SDS011;46102;39.012;-7.064;2024-03-22T08:45:36;21.63;;;7.32;;
60239;SDS011;46102;39.012;-7.064;2024-03-22T08:47:36;23.02;;;8.10;;
60239;SDS011;46102;39.012;-7.064;2024-03-22T08:49:38;24.55;;;4.50;;
60239;SDS011;46102;39.012;-7.064;2024-03-22T08:51:39;32.33;;;6.18;;
60239;SDS011;46102;39.012;-7.064;2024-03-22T08:53:40;28.55;;;5.65;;
60239;SDS011;46102;39.012;-7.064;2024-03-22T08:55:46;31.88;;;4.30;;
60239;SDS011;46102;39.012;-7.064;2024-03-22T08:57:48;12.23;;;3.50;;
60239;SDS011;46102;39.012;-7.064;2024-03-22T08:59:48;8.70;;;3.20;;
60239;SDS011;46102;39.012;-7.064;2024-03-22T09:01:49;25.15;;;7.90;;
60239;SDS011;46102;39.012;-7.064;2024-03-22T09:03:50;16.40;;;7.60;;
60239;SDS011;46102;39.012;-7.064;2024-03-22T09:05:52;78.75;;;48.90;;
60239;SDS011;46102;39.012;-7.064;2024-03-22T09:07:54;40.47;;;11.07;;
60239;SDS011;46102;39.012;-7.064;2024-03-22T09:09:56;23.63;;;3.67;;
60239;SDS011;46102;39.012;-7.064;2024-03-22T09:11:56;29.42;;;3.83;;
60239;SDS011;46102;39.012;-7.064;2024-03-22T09:13:57;15.65;;;2.67;;
60239;SDS011;46102;39.012;-7.064;2024-03-22T09:15:58;17.85;;;3.35;;
60239;SDS011;46102;39.012;-7.064;2024-03-22T09:17:59;14.00;;;4.70;;
60239;SDS011;46102;39.012;-7.064;2024-03-22T09:20:00;17.63;;;7.40;;
60239;SDS011;46102;39.012;-7.064;2024-03-22T09:22:01;28.85;;;16.02;;
60239;SDS011;46102;39.012;-7.064;2024-03-22T09:24:03;36.15;;;29.20;;
60239;SDS011;46102;39.012;-7.064;2024-03-22T09:26:05;37.92;;;18.48;;
60239;SDS011;46102;39.012;-7.064;2024-03-22T09:28:06;14.75;;;6.72;;
60239;SDS011;46102;39.012;-7.064;2024-03-22T09:30:07;19.98;;;4.57;;
60239;SDS011;46102;39.012;-7.064;2024-03-22T09:32:08;21.10;;;4.43;;
60239;SDS011;46102;39.012;-7.064;2024-03-22T09:34:09;17.77;;;3.05;;
60239;SDS011;46102;39.012;-7.064;2024-03-22T09:36:10;14.48;;;2.58;;
60239;SDS011;46102;39.012;-7.064;2024-03-22T09:38:10;13.48;;;2.55;;
60239;SDS011;46102;39.012;-7.064;2024-03-22T09:40:12;13.88;;;2.33;;
60239;SDS011;46102;39.012;-7.064;2024-03-22T09:42:16;13.95;;;2.40;;
60239;SDS011;46102;39.012;-7.064;2024-03-22T09:44:19;16.42;;;2.47;;
60239;SDS011;46102;39.012;-7.064;2024-03-22T09:46:19;22.25;;;3.05;;
60239;SDS011;46102;39.012;-7.064;2024-03-22T09:48:21;22.70;;;2.50;;
60239;SDS011;46102;39.012;-7.064;2024-03-22T09:50:23;10.18;;;2.35;;
60239;SDS011;46102;39.012;-7.064;2024-03-22T09:52:25;10.02;;;2.47;;
60239;SDS011;46102;39.012;-7.064;2024-03-22T09:54:25;11.90;;;2.90;;
60239;SDS011;46102;39.012;-7.064;2024-03-22T09:56:26;13.95;;;2.75;;
60239;SDS011;46102;39.012;-7.064;2024-03-22T09:58:30;13.57;;;3.17;;
60239;SDS011;46102;39.012;-7.064;2024-03-22T10:00:31;13.68;;;2.67;;
60239;SDS011;46102;39.012;-7.064;2024-03-22T10:02:32;16.35;;;2.42;;
60239;SDS011;46102;39.012;-7.064;2024-03-22T10:04:34;23.73;;;4.07;;
60239;SDS011;46102;39.012;-7.064;2024-03-22T10:06:36;13.15;;;2.78;;
60239;SDS011;46102;39.012;-7.064;2024-03-22T10:08:38;26.15;;;3.13;;
60239;SDS011;46102;39.012;-7.064;2024-03-22T10:10:38;16.90;;;2.40;;
60239;SDS011;46102;39.012;-7.064;2024-03-22T10:12:39;10.80;;;3.20;;
60239;SDS011;46102;39.012;-7.064;2024-03-22T10:14:42;15.65;;;3.03;;
60239;SDS011;46102;39.012;-7.064;2024-03-22T10:16:44;7.85;;;3.20;;
60239;SDS011;46102;39.012;-7.064;2024-03-22T10:18:45;22.25;;;3.42;;
60239;SDS011;46102;39.012;-7.064;2024-03-22T10:20:58;15.73;;;3.60;;
60239;SDS011;46102;39.012;-7.064;2024-03-22T10:23:00;23.80;;;4.05;;
60239;SDS011;46102;39.012;-7.064;2024-03-22T10:25:01;32.10;;;3.53;;
60239;SDS011;46102;39.012;-7.064;2024-03-22T10:27:04;15.80;;;3.47;;
60239;SDS011;46102;39.012;-7.064;2024-03-22T10:29:06;6.75;;;3.30;;
60239;SDS011;46102;39.012;-7.064;2024-03-22T10:31:07;25.33;;;2.80;;
60239;SDS011;46102;39.012;-7.064;2024-03-22T10:33:08;10.25;;;3.50;;
60239;SDS011;46102;39.012;-7.064;2024-03-22T10:35:11;14.13;;;2.78;;
60239;SDS011;46102;39.012;-7.064;2024-03-22T10:37:15;10.98;;;2.83;;
60239;SDS011;46102;39.012;-7.064;2024-03-22T10:39:16;14.77;;;3.08;;
60239;SDS011;46102;39.012;-7.064;2024-03-22T10:41:19;15.30;;;3.50;;
60239;SDS011;46102;39.012;-7.064;2024-03-22T10:43:20;36.60;;;3.70;;
60239;SDS011;46102;39.012;-7.064;2024-03-22T10:45:20;23.55;;;4.65;;
60239;SDS011;46102;39.012;-7.064;2024-03-22T10:47:26;17.75;;;3.60;;
60239;SDS011;46102;39.012;-7.064;2024-03-22T10:49:30;21.73;;;3.22;;
60239;SDS011;46102;39.012;-7.064;2024-03-22T10:51:37;12.00;;;2.92;;
60239;SDS011;46102;39.012;-7.064;2024-03-22T10:53:38;30.80;;;6.53;;
60239;SDS011;46102;39.012;-7.064;2024-03-22T10:55:42;18.30;;;2.60;;
60239;SDS011;46102;39.012;-7.064;2024-03-22T10:57:44;19.67;;;3.85;;
60239;SDS011;46102;39.012;-7.064;2024-03-22T10:59:46;19.92;;;2.55;;
60239;SDS011;46102;39.012;-7.064;2024-03-22T11:01:49;11.77;;;3.08;;
60239;SDS011;46102;39.012;-7.064;2024-03-22T11:03:50;12.30;;;2.60;;
60239;SDS011;46102;39.012;-7.064;2024-03-22T11:05:55;13.48;;;3.08;;
60239;SDS011;46102;39.012;-7.064;2024-03-22T11:08:03;15.48;;;2.63;;
60239;SDS011;46102;39.012;-7.064;2024-03-22T11:10:05;25.23;;;2.55;;
60239;SDS011;46102;39.012;-7.064;2024-03-22T11:12:08;23.60;;;3.22;;
60239;SDS011;46102;39.012;-7.064;2024-03-22T11:14:09;21.63;;;2.65;;
60239;SDS011;46102;39.012;-7.064;2024-03-22T11:16:09;15.73;;;3.17;;
60239;SDS011;46102;39.012;-7.064;2024-03-22T11:18:10;17.25;;;2.40;;
60239;SDS011;46102;39.012;-7.064;2024-03-22T11:20:11;23.10;;;3.10;;
60239;SDS011;46102;39.012;-7.064;2024-03-22T11:22:12;14.95;;;2.33;;
60239;SDS011;46102;39.012;-7.064;2024-03-22T11:24:15;17.83;;;2.75;;
60239;SDS011;46102;39.012;-7.064;2024-03-22T11:26:15;19.05;;;3.08;;
60239;SDS011;46102;39.012;-7.064;2024-03-22T11:28:16;18.45;;;3.20;;
60239;SDS011;46102;39.012;-7.064;2024-03-22T11:30:18;15.13;;;2.60;;
60239;SDS011;46102;39.012;-7.064;2024-03-22T11:32:19;12.45;;;2.85;;
60239;SDS011;46102;39.012;-7.064;2024-03-22T11:34:20;10.52;;;2.63;;
60239;SDS011;46102;39.012;-7.064;2024-03-22T11:36:22;10.68;;;2.28;;
60239;SDS011;46102;39.012;-7.064;2024-03-22T11:38:23;14.68;;;3.05;;
60239;SDS011;46102;39.012;-7.064;2024-03-22T11:40:27;20.10;;;2.38;;
60239;SDS011;46102;39.012;-7.064;2024-03-22T11:42:30;16.48;;;2.40;;
60239;SDS011;46102;39.012;-7.064;2024-03-22T11:44:31;11.95;;;3.08;;
60239;SDS011;46102;39.012;-7.064;2024-03-22T11:46:34;11.07;;;2.88;;
60239;SDS011;46102;39.012;-7.064;2024-03-22T11:48:38;11.07;;;2.55;;
60239;SDS011;46102;39.012;-7.064;2024-03-22T11:50:40;18.63;;;2.28;;